sensor_id;sensor_type;location;lat;lon;timestamp;P1;durP1;ratioP1;P2;durP2;ratioP2
64982;SDS011;62161;54.688;25.256;2022-10-16T00:01:34;13.63;;;7.22;;
64982;SDS011;62161;54.688;25.256;2022-10-16T00:04:00;15.15;;;7.78;;
64982;SDS011;62161;54.688;25.256;2022-10-16T00:06:26;14.10;;;7.95;;
64982;SDS011;62161;54.688;25.256;2022-10-16T00:08:53;20.13;;;8.25;;
64982;SDS011;62161;54.688;25.256;2022-10-16T00:11:27;20.08;;;7.85;;
64982;SDS011;62161;54.688;25.256;2022-10-16T00:13:55;15.90;;;7.70;;
64982;SDS011;62161;54.688;25.256;2022-10-16T00:16:22;15.15;;;7.90;;
64982;SDS011;62161;54.688;25.256;2022-10-16T00:18:48;16.02;;;7.78;;
64982;SDS011;62161;54.688;25.256;2022-10-16T00:21:16;15.63;;;7.65;;
64982;SDS011;62161;54.688;25.256;2022-10-16T00:23:43;13.45;;;7.60;;
64982;SDS011;62161;54.688;25.256;2022-10-16T00:26:14;13.63;;;8.00;;
64982;SDS011;62161;54.688;25.256;2022-10-16T00:28:41;15.20;;;8.02;;
64982;SDS011;62161;54.688;25.256;2022-10-16T00:31:07;17.30;;;7.80;;
64982;SDS011;62161;54.688;25.256;2022-10-16T00:33:34;19.08;;;8.18;;
64982;SDS011;62161;54.688;25.256;2022-10-16T00:36:01;17.05;;;8.48;;
64982;SDS011;62161;54.688;25.256;2022-10-16T00:38:28;16.05;;;8.50;;
64982;SDS011;62161;54.688;25.256;2022-10-16T00:40:53;18.65;;;8.60;;
64982;SDS011;62161;54.688;25.256;2022-10-16T00:46:22;21.10;;;8.57;;
64982;SDS011;62161;54.688;25.256;2022-10-16T00:49:07;18.52;;;7.88;;
64982;SDS011;62161;54.688;25.256;2022-10-16T00:51:41;12.48;;;7.90;;
64982;SDS011;62161;54.688;25.256;2022-10-16T00:54:11;19.95;;;8.30;;
64982;SDS011;62161;54.688;25.256;2022-10-16T00:56:47;17.80;;;8.75;;
64982;SDS011;62161;54.688;25.256;2022-10-16T00:59:18;17.65;;;8.95;;
64982;SDS011;62161;54.688;25.256;2022-10-16T01:01:47;16.60;;;7.97;;
64982;SDS011;62161;54.688;25.256;2022-10-16T01:04:13;14.55;;;8.10;;
64982;SDS011;62161;54.688;25.256;2022-10-16T01:06:41;15.40;;;8.23;;
64982;SDS011;62161;54.688;25.256;2022-10-16T01:12:08;14.77;;;8.55;;
64982;SDS011;62161;54.688;25.256;2022-10-16T01:17:14;13.60;;;8.13;;
64982;SDS011;62161;54.688;25.256;2022-10-16T01:22:14;14.68;;;8.23;;
64982;SDS011;62161;54.688;25.256;2022-10-16T01:24:43;19.00;;;9.02;;
64982;SDS011;62161;54.688;25.256;2022-10-16T01:27:25;15.27;;;8.80;;
64982;SDS011;62161;54.688;25.256;2022-10-16T01:29:59;20.52;;;8.82;;
64982;SDS011;62161;54.688;25.256;2022-10-16T01:32:28;17.38;;;8.68;;
64982;SDS011;62161;54.688;25.256;2022-10-16T01:35:00;15.52;;;8.30;;
64982;SDS011;62161;54.688;25.256;2022-10-16T01:37:37;14.90;;;8.52;;
64982;SDS011;62161;54.688;25.256;2022-10-16T01:40:07;19.60;;;8.88;;
64982;SDS011;62161;54.688;25.256;2022-10-16T01:42:39;17.52;;;8.55;;
64982;SDS011;62161;54.688;25.256;2022-10-16T01:45:07;17.23;;;9.50;;
64982;SDS011;62161;54.688;25.256;2022-10-16T01:47:36;17.05;;;9.32;;
64982;SDS011;62161;54.688;25.256;2022-10-16T01:50:03;14.82;;;8.65;;
64982;SDS011;62161;54.688;25.256;2022-10-16T01:52:30;15.45;;;8.48;;
64982;SDS011;62161;54.688;25.256;2022-10-16T01:54:59;14.32;;;8.65;;
64982;SDS011;62161;54.688;25.256;2022-10-16T01:57:27;17.05;;;8.85;;
64982;SDS011;62161;54.688;25.256;2022-10-16T01:59:55;14.27;;;8.57;;
64982;SDS011;62161;54.688;25.256;2022-10-16T02:02:23;15.43;;;8.43;;
64982;SDS011;62161;54.688;25.256;2022-10-16T02:04:55;14.70;;;8.43;;
64982;SDS011;62161;54.688;25.256;2022-10-16T02:07:57;19.50;;;8.60;;
64982;SDS011;62161;54.688;25.256;2022-10-16T02:10:23;17.33;;;8.77;;
64982;SDS011;62161;54.688;25.256;2022-10-16T02:12:50;18.05;;;8.98;;
64982;SDS011;62161;54.688;25.256;2022-10-16T02:15:28;19.00;;;9.40;;
64982;SDS011;62161;54.688;25.256;2022-10-16T02:17:54;19.20;;;8.90;;
64982;SDS011;62161;54.688;25.256;2022-10-16T02:20:20;17.20;;;9.35;;
64982;SDS011;62161;54.688;25.256;2022-10-16T02:22:51;18.10;;;8.90;;
64982;SDS011;62161;54.688;25.256;2022-10-16T02:25:24;14.63;;;9.35;;
64982;SDS011;62161;54.688;25.256;2022-10-16T02:27:58;16.85;;;9.65;;
64982;SDS011;62161;54.688;25.256;2022-10-16T02:30:28;15.75;;;9.43;;
64982;SDS011;62161;54.688;25.256;2022-10-16T02:33:07;18.38;;;9.68;;
64982;SDS011;62161;54.688;25.256;2022-10-16T02:35:36;17.17;;;9.45;;
64982;SDS011;62161;54.688;25.256;2022-10-16T02:38:03;17.58;;;9.70;;
64982;SDS011;62161;54.688;25.256;2022-10-16T02:40:30;17.08;;;9.43;;
64982;SDS011;62161;54.688;25.256;2022-10-16T02:42:55;19.05;;;9.73;;
64982;SDS011;62161;54.688;25.256;2022-10-16T02:45:21;16.80;;;9.27;;
64982;SDS011;62161;54.688;25.256;2022-10-16T02:47:47;16.67;;;9.63;;
64982;SDS011;62161;54.688;25.256;2022-10-16T02:50:13;19.70;;;9.30;;
64982;SDS011;62161;54.688;25.256;2022-10-16T02:52:39;18.17;;;9.73;;
64982;SDS011;62161;54.688;25.256;2022-10-16T02:55:05;18.70;;;9.57;;
64982;SDS011;62161;54.688;25.256;2022-10-16T02:57:30;16.77;;;9.48;;
64982;SDS011;62161;54.688;25.256;2022-10-16T02:59:56;18.70;;;9.50;;
64982;SDS011;62161;54.688;25.256;2022-10-16T03:02:22;20.98;;;9.80;;
64982;SDS011;62161;54.688;25.256;2022-10-16T03:04:47;17.88;;;9.85;;
64982;SDS011;62161;54.688;25.256;2022-10-16T03:07:13;18.48;;;9.43;;
64982;SDS011;62161;54.688;25.256;2022-10-16T03:09:38;18.98;;;9.82;;
64982;SDS011;62161;54.688;25.256;2022-10-16T03:12:03;17.42;;;8.88;;
64982;SDS011;62161;54.688;25.256;2022-10-16T03:14:29;16.58;;;9.55;;
64982;SDS011;62161;54.688;25.256;2022-10-16T03:16:54;17.63;;;9.75;;
64982;SDS011;62161;54.688;25.256;2022-10-16T03:19:20;18.10;;;9.40;;
64982;SDS011;62161;54.688;25.256;2022-10-16T03:21:45;18.85;;;9.68;;
64982;SDS011;62161;54.688;25.256;2022-10-16T03:24:11;19.83;;;8.98;;
64982;SDS011;62161;54.688;25.256;2022-10-16T03:26:36;18.10;;;10.10;;
64982;SDS011;62161;54.688;25.256;2022-10-16T03:29:02;19.65;;;10.35;;
64982;SDS011;62161;54.688;25.256;2022-10-16T03:31:28;16.90;;;9.40;;
64982;SDS011;62161;54.688;25.256;2022-10-16T03:33:54;21.27;;;10.15;;
64982;SDS011;62161;54.688;25.256;2022-10-16T03:36:19;17.80;;;9.32;;
64982;SDS011;62161;54.688;25.256;2022-10-16T03:38:45;17.30;;;9.35;;
64982;SDS011;62161;54.688;25.256;2022-10-16T03:41:10;16.85;;;9.60;;
64982;SDS011;62161;54.688;25.256;2022-10-16T03:43:36;20.60;;;10.10;;
64982;SDS011;62161;54.688;25.256;2022-10-16T03:46:01;20.52;;;9.80;;
64982;SDS011;62161;54.688;25.256;2022-10-16T03:48:26;18.02;;;10.68;;
64982;SDS011;62161;54.688;25.256;2022-10-16T03:50:52;20.27;;;10.30;;
64982;SDS011;62161;54.688;25.256;2022-10-16T03:53:17;18.85;;;10.20;;
64982;SDS011;62161;54.688;25.256;2022-10-16T03:55:43;23.92;;;9.05;;
64982;SDS011;62161;54.688;25.256;2022-10-16T03:58:09;21.40;;;10.20;;
64982;SDS011;62161;54.688;25.256;2022-10-16T04:00:35;22.23;;;9.63;;
64982;SDS011;62161;54.688;25.256;2022-10-16T04:03:01;17.70;;;10.27;;
64982;SDS011;62161;54.688;25.256;2022-10-16T04:05:26;19.45;;;9.77;;
64982;SDS011;62161;54.688;25.256;2022-10-16T04:07:51;17.75;;;9.82;;
64982;SDS011;62161;54.688;25.256;2022-10-16T04:10:17;18.02;;;9.95;;
64982;SDS011;62161;54.688;25.256;2022-10-16T04:12:43;17.38;;;9.90;;
64982;SDS011;62161;54.688;25.256;2022-10-16T04:15:08;19.38;;;10.32;;
64982;SDS011;62161;54.688;25.256;2022-10-16T04:17:34;20.00;;;9.70;;
64982;SDS011;62161;54.688;25.256;2022-10-16T04:20:00;19.75;;;10.05;;
64982;SDS011;62161;54.688;25.256;2022-10-16T04:22:25;17.17;;;10.35;;
64982;SDS011;62161;54.688;25.256;2022-10-16T04:24:51;21.02;;;10.13;;
64982;SDS011;62161;54.688;25.256;2022-10-16T04:27:16;18.98;;;10.02;;
64982;SDS011;62161;54.688;25.256;2022-10-16T04:29:41;18.83;;;9.40;;
64982;SDS011;62161;54.688;25.256;2022-10-16T04:32:08;18.45;;;10.15;;
64982;SDS011;62161;54.688;25.256;2022-10-16T04:34:34;17.67;;;9.88;;
64982;SDS011;62161;54.688;25.256;2022-10-16T04:36:59;17.35;;;10.38;;
64982;SDS011;62161;54.688;25.256;2022-10-16T04:39:25;20.55;;;10.38;;
64982;SDS011;62161;54.688;25.256;2022-10-16T04:41:50;17.50;;;10.90;;
64982;SDS011;62161;54.688;25.256;2022-10-16T04:44:16;19.70;;;10.40;;
64982;SDS011;62161;54.688;25.256;2022-10-16T04:46:41;20.73;;;10.18;;
64982;SDS011;62161;54.688;25.256;2022-10-16T04:49:06;15.27;;;9.98;;
64982;SDS011;62161;54.688;25.256;2022-10-16T04:51:32;21.63;;;10.30;;
64982;SDS011;62161;54.688;25.256;2022-10-16T04:53:57;15.95;;;9.93;;
64982;SDS011;62161;54.688;25.256;2022-10-16T04:56:23;16.95;;;9.73;;
64982;SDS011;62161;54.688;25.256;2022-10-16T04:58:49;21.45;;;10.82;;
64982;SDS011;62161;54.688;25.256;2022-10-16T05:01:14;19.67;;;10.00;;
64982;SDS011;62161;54.688;25.256;2022-10-16T05:03:40;18.42;;;10.35;;
64982;SDS011;62161;54.688;25.256;2022-10-16T05:06:05;18.98;;;10.60;;
64982;SDS011;62161;54.688;25.256;2022-10-16T05:08:32;17.35;;;10.23;;
64982;SDS011;62161;54.688;25.256;2022-10-16T05:10:57;20.65;;;10.50;;
64982;SDS011;62161;54.688;25.256;2022-10-16T05:13:22;21.25;;;10.95;;
64982;SDS011;62161;54.688;25.256;2022-10-16T05:15:48;18.95;;;10.55;;
64982;SDS011;62161;54.688;25.256;2022-10-16T05:18:14;26.00;;;10.55;;
64982;SDS011;62161;54.688;25.256;2022-10-16T05:20:40;23.55;;;11.13;;
64982;SDS011;62161;54.688;25.256;2022-10-16T05:23:06;19.38;;;11.23;;
64982;SDS011;62161;54.688;25.256;2022-10-16T05:25:32;19.60;;;10.95;;
64982;SDS011;62161;54.688;25.256;2022-10-16T05:27:57;23.40;;;11.95;;
64982;SDS011;62161;54.688;25.256;2022-10-16T05:30:23;18.75;;;10.88;;
64982;SDS011;62161;54.688;25.256;2022-10-16T05:32:48;19.95;;;10.57;;
64982;SDS011;62161;54.688;25.256;2022-10-16T05:35:15;21.90;;;10.82;;
64982;SDS011;62161;54.688;25.256;2022-10-16T05:37:41;24.00;;;10.82;;
64982;SDS011;62161;54.688;25.256;2022-10-16T05:40:06;17.85;;;11.23;;
64982;SDS011;62161;54.688;25.256;2022-10-16T05:42:32;19.95;;;10.40;;
64982;SDS011;62161;54.688;25.256;2022-10-16T05:44:58;17.23;;;10.25;;
64982;SDS011;62161;54.688;25.256;2022-10-16T05:47:23;20.60;;;10.30;;
64982;SDS011;62161;54.688;25.256;2022-10-16T05:49:48;20.55;;;10.15;;
64982;SDS011;62161;54.688;25.256;2022-10-16T05:52:14;19.40;;;10.38;;
64982;SDS011;62161;54.688;25.256;2022-10-16T05:54:39;20.38;;;10.35;;
64982;SDS011;62161;54.688;25.256;2022-10-16T05:57:05;21.73;;;10.90;;
64982;SDS011;62161;54.688;25.256;2022-10-16T05:59:31;18.35;;;10.30;;
64982;SDS011;62161;54.688;25.256;2022-10-16T06:01:56;23.75;;;10.45;;
64982;SDS011;62161;54.688;25.256;2022-10-16T06:04:22;18.23;;;10.68;;
64982;SDS011;62161;54.688;25.256;2022-10-16T06:06:48;22.65;;;10.77;;
64982;SDS011;62161;54.688;25.256;2022-10-16T06:09:13;22.23;;;10.77;;
64982;SDS011;62161;54.688;25.256;2022-10-16T06:11:38;17.38;;;10.18;;
64982;SDS011;62161;54.688;25.256;2022-10-16T06:14:04;22.70;;;10.95;;
64982;SDS011;62161;54.688;25.256;2022-10-16T06:16:32;23.52;;;11.02;;
64982;SDS011;62161;54.688;25.256;2022-10-16T06:18:59;18.10;;;10.40;;
64982;SDS011;62161;54.688;25.256;2022-10-16T06:21:25;20.45;;;10.02;;
64982;SDS011;62161;54.688;25.256;2022-10-16T06:23:51;18.67;;;10.23;;
64982;SDS011;62161;54.688;25.256;2022-10-16T06:26:18;18.63;;;10.48;;
64982;SDS011;62161;54.688;25.256;2022-10-16T06:28:46;18.73;;;10.30;;
64982;SDS011;62161;54.688;25.256;2022-10-16T06:31:12;19.65;;;10.50;;
64982;SDS011;62161;54.688;25.256;2022-10-16T06:33:38;18.02;;;10.50;;
64982;SDS011;62161;54.688;25.256;2022-10-16T06:36:06;24.75;;;9.95;;
64982;SDS011;62161;54.688;25.256;2022-10-16T06:38:36;20.83;;;10.60;;
64982;SDS011;62161;54.688;25.256;2022-10-16T06:41:02;20.00;;;10.00;;
64982;SDS011;62161;54.688;25.256;2022-10-16T06:43:29;17.98;;;9.68;;
64982;SDS011;62161;54.688;25.256;2022-10-16T06:45:57;20.58;;;9.85;;
64982;SDS011;62161;54.688;25.256;2022-10-16T06:48:24;20.45;;;9.73;;
64982;SDS011;62161;54.688;25.256;2022-10-16T06:51:00;22.75;;;10.00;;
64982;SDS011;62161;54.688;25.256;2022-10-16T06:53:35;17.98;;;9.88;;
64982;SDS011;62161;54.688;25.256;2022-10-16T06:56:12;19.95;;;10.32;;
64982;SDS011;62161;54.688;25.256;2022-10-16T06:58:40;17.92;;;10.30;;
64982;SDS011;62161;54.688;25.256;2022-10-16T07:01:06;21.58;;;10.68;;
64982;SDS011;62161;54.688;25.256;2022-10-16T07:03:32;18.10;;;9.85;;
64982;SDS011;62161;54.688;25.256;2022-10-16T07:06:01;16.80;;;10.05;;
64982;SDS011;62161;54.688;25.256;2022-10-16T07:08:27;19.17;;;10.55;;
64982;SDS011;62161;54.688;25.256;2022-10-16T07:10:59;17.30;;;10.45;;
64982;SDS011;62161;54.688;25.256;2022-10-16T07:13:25;19.40;;;9.85;;
64982;SDS011;62161;54.688;25.256;2022-10-16T07:15:51;20.52;;;10.57;;
64982;SDS011;62161;54.688;25.256;2022-10-16T07:18:16;16.85;;;10.00;;
64982;SDS011;62161;54.688;25.256;2022-10-16T07:20:42;20.02;;;9.95;;
64982;SDS011;62161;54.688;25.256;2022-10-16T07:23:07;21.77;;;10.52;;
64982;SDS011;62161;54.688;25.256;2022-10-16T07:25:32;19.60;;;11.18;;
64982;SDS011;62161;54.688;25.256;2022-10-16T07:27:58;22.48;;;10.82;;
64982;SDS011;62161;54.688;25.256;2022-10-16T07:30:23;24.02;;;11.07;;
64982;SDS011;62161;54.688;25.256;2022-10-16T07:32:49;20.23;;;10.07;;
64982;SDS011;62161;54.688;25.256;2022-10-16T07:35:14;19.75;;;10.27;;
64982;SDS011;62161;54.688;25.256;2022-10-16T07:37:43;19.10;;;10.23;;
64982;SDS011;62161;54.688;25.256;2022-10-16T07:40:09;17.95;;;10.20;;
64982;SDS011;62161;54.688;25.256;2022-10-16T07:42:35;21.13;;;10.90;;
64982;SDS011;62161;54.688;25.256;2022-10-16T07:45:00;17.65;;;10.00;;
64982;SDS011;62161;54.688;25.256;2022-10-16T07:47:25;20.50;;;10.45;;
64982;SDS011;62161;54.688;25.256;2022-10-16T07:49:51;22.35;;;10.52;;
64982;SDS011;62161;54.688;25.256;2022-10-16T07:52:16;21.98;;;10.75;;
64982;SDS011;62161;54.688;25.256;2022-10-16T07:54:42;17.35;;;9.95;;
64982;SDS011;62161;54.688;25.256;2022-10-16T07:57:07;23.60;;;10.93;;
64982;SDS011;62161;54.688;25.256;2022-10-16T07:59:32;24.02;;;10.32;;
64982;SDS011;62161;54.688;25.256;2022-10-16T08:01:58;16.88;;;9.90;;
64982;SDS011;62161;54.688;25.256;2022-10-16T08:04:23;18.92;;;10.30;;
64982;SDS011;62161;54.688;25.256;2022-10-16T08:06:49;18.52;;;10.63;;
64982;SDS011;62161;54.688;25.256;2022-10-16T08:09:14;17.38;;;9.63;;
64982;SDS011;62161;54.688;25.256;2022-10-16T08:11:40;23.73;;;10.52;;
64982;SDS011;62161;54.688;25.256;2022-10-16T08:14:05;24.83;;;10.52;;
64982;SDS011;62161;54.688;25.256;2022-10-16T08:16:31;19.38;;;9.70;;
64982;SDS011;62161;54.688;25.256;2022-10-16T08:18:56;23.63;;;10.63;;
64982;SDS011;62161;54.688;25.256;2022-10-16T08:21:21;15.77;;;10.00;;
64982;SDS011;62161;54.688;25.256;2022-10-16T08:23:48;24.70;;;10.48;;
64982;SDS011;62161;54.688;25.256;2022-10-16T08:26:15;17.13;;;10.20;;
64982;SDS011;62161;54.688;25.256;2022-10-16T08:28:40;20.45;;;10.38;;
64982;SDS011;62161;54.688;25.256;2022-10-16T08:31:06;15.45;;;9.82;;
64982;SDS011;62161;54.688;25.256;2022-10-16T08:33:37;18.23;;;10.55;;
64982;SDS011;62161;54.688;25.256;2022-10-16T08:36:03;17.70;;;10.20;;
64982;SDS011;62161;54.688;25.256;2022-10-16T08:38:30;19.10;;;10.52;;
64982;SDS011;62161;54.688;25.256;2022-10-16T08:41:07;23.23;;;10.07;;
64982;SDS011;62161;54.688;25.256;2022-10-16T08:48:59;22.70;;;10.25;;
64982;SDS011;62161;54.688;25.256;2022-10-16T08:51:29;17.92;;;10.25;;
64982;SDS011;62161;54.688;25.256;2022-10-16T08:53:57;21.50;;;9.68;;
64982;SDS011;62161;54.688;25.256;2022-10-16T08:56:24;21.60;;;10.00;;
64982;SDS011;62161;54.688;25.256;2022-10-16T08:58:52;17.20;;;10.02;;
64982;SDS011;62161;54.688;25.256;2022-10-16T09:01:20;17.23;;;9.57;;
64982;SDS011;62161;54.688;25.256;2022-10-16T09:07:02;17.08;;;10.27;;
64982;SDS011;62161;54.688;25.256;2022-10-16T09:20:19;16.75;;;9.52;;
64982;SDS011;62161;54.688;25.256;2022-10-16T09:22:46;16.85;;;9.57;;
64982;SDS011;62161;54.688;25.256;2022-10-16T09:25:19;16.00;;;9.13;;
64982;SDS011;62161;54.688;25.256;2022-10-16T09:27:47;19.23;;;9.52;;
64982;SDS011;62161;54.688;25.256;2022-10-16T09:30:18;20.63;;;10.07;;
64982;SDS011;62161;54.688;25.256;2022-10-16T09:32:46;15.95;;;9.48;;
64982;SDS011;62161;54.688;25.256;2022-10-16T09:35:19;20.33;;;9.80;;
64982;SDS011;62161;54.688;25.256;2022-10-16T09:37:51;15.95;;;9.15;;
64982;SDS011;62161;54.688;25.256;2022-10-16T09:40:28;23.67;;;9.95;;
64982;SDS011;62161;54.688;25.256;2022-10-16T09:43:21;22.42;;;9.82;;
64982;SDS011;62161;54.688;25.256;2022-10-16T09:45:59;17.70;;;9.60;;
64982;SDS011;62161;54.688;25.256;2022-10-16T09:48:51;18.35;;;10.15;;
64982;SDS011;62161;54.688;25.256;2022-10-16T09:51:29;19.40;;;9.60;;
64982;SDS011;62161;54.688;25.256;2022-10-16T09:53:59;17.83;;;9.20;;
64982;SDS011;62161;54.688;25.256;2022-10-16T09:56:30;18.45;;;9.80;;
64982;SDS011;62161;54.688;25.256;2022-10-16T09:59:03;17.80;;;9.32;;
64982;SDS011;62161;54.688;25.256;2022-10-16T10:01:38;14.63;;;8.88;;
64982;SDS011;62161;54.688;25.256;2022-10-16T10:04:06;17.38;;;9.70;;
64982;SDS011;62161;54.688;25.256;2022-10-16T10:06:51;17.10;;;9.35;;
64982;SDS011;62161;54.688;25.256;2022-10-16T10:09:22;15.40;;;9.27;;
64982;SDS011;62161;54.688;25.256;2022-10-16T10:16:49;18.13;;;8.93;;
64982;SDS011;62161;54.688;25.256;2022-10-16T10:19:17;18.75;;;9.25;;
64982;SDS011;62161;54.688;25.256;2022-10-16T10:21:48;19.45;;;9.77;;
64982;SDS011;62161;54.688;25.256;2022-10-16T10:24:15;17.85;;;9.15;;
64982;SDS011;62161;54.688;25.256;2022-10-16T10:26:44;15.88;;;9.18;;
64982;SDS011;62161;54.688;25.256;2022-10-16T10:40:16;18.52;;;9.63;;
64982;SDS011;62161;54.688;25.256;2022-10-16T10:45:43;19.70;;;9.75;;
64982;SDS011;62161;54.688;25.256;2022-10-16T10:51:04;21.55;;;9.38;;
64982;SDS011;62161;54.688;25.256;2022-10-16T11:07:15;18.10;;;9.45;;
64982;SDS011;62161;54.688;25.256;2022-10-16T11:09:51;19.55;;;9.07;;
64982;SDS011;62161;54.688;25.256;2022-10-16T11:12:25;15.85;;;9.32;;
64982;SDS011;62161;54.688;25.256;2022-10-16T11:17:50;20.02;;;9.55;;
64982;SDS011;62161;54.688;25.256;2022-10-16T11:25:50;16.15;;;8.98;;
64982;SDS011;62161;54.688;25.256;2022-10-16T11:36:31;20.80;;;9.52;;
64982;SDS011;62161;54.688;25.256;2022-10-16T11:39:11;16.98;;;9.18;;
64982;SDS011;62161;54.688;25.256;2022-10-16T11:49:57;17.52;;;9.13;;
64982;SDS011;62161;54.688;25.256;2022-10-16T11:52:28;15.55;;;8.85;;
64982;SDS011;62161;54.688;25.256;2022-10-16T11:55:08;15.55;;;8.73;;
64982;SDS011;62161;54.688;25.256;2022-10-16T11:57:42;18.77;;;8.95;;
64982;SDS011;62161;54.688;25.256;2022-10-16T12:00:28;18.95;;;8.80;;
64982;SDS011;62161;54.688;25.256;2022-10-16T12:03:05;15.57;;;8.52;;
64982;SDS011;62161;54.688;25.256;2022-10-16T12:08:25;18.30;;;8.88;;
64982;SDS011;62161;54.688;25.256;2022-10-16T12:10:51;25.98;;;8.48;;
64982;SDS011;62161;54.688;25.256;2022-10-16T12:16:19;15.75;;;8.32;;
64982;SDS011;62161;54.688;25.256;2022-10-16T12:18:46;16.67;;;8.68;;
64982;SDS011;62161;54.688;25.256;2022-10-16T12:21:13;16.73;;;8.30;;
64982;SDS011;62161;54.688;25.256;2022-10-16T12:23:48;16.90;;;8.38;;
64982;SDS011;62161;54.688;25.256;2022-10-16T12:26:26;17.33;;;8.75;;
64982;SDS011;62161;54.688;25.256;2022-10-16T12:28:54;17.00;;;8.00;;
64982;SDS011;62161;54.688;25.256;2022-10-16T12:31:20;17.48;;;8.05;;
64982;SDS011;62161;54.688;25.256;2022-10-16T12:33:59;14.52;;;8.05;;
64982;SDS011;62161;54.688;25.256;2022-10-16T12:36:28;12.63;;;8.02;;
64982;SDS011;62161;54.688;25.256;2022-10-16T12:38:55;15.27;;;8.30;;
64982;SDS011;62161;54.688;25.256;2022-10-16T12:41:25;15.30;;;8.40;;
64982;SDS011;62161;54.688;25.256;2022-10-16T12:43:59;16.35;;;8.07;;
64982;SDS011;62161;54.688;25.256;2022-10-16T12:49:04;16.40;;;8.50;;
64982;SDS011;62161;54.688;25.256;2022-10-16T12:54:04;14.82;;;7.78;;
64982;SDS011;62161;54.688;25.256;2022-10-16T13:16:57;15.90;;;8.40;;
64982;SDS011;62161;54.688;25.256;2022-10-16T13:27:56;16.80;;;9.00;;
64982;SDS011;62161;54.688;25.256;2022-10-16T13:32:59;14.93;;;7.80;;
64982;SDS011;62161;54.688;25.256;2022-10-16T13:35:28;16.73;;;8.35;;
64982;SDS011;62161;54.688;25.256;2022-10-16T13:38:05;16.27;;;8.60;;
64982;SDS011;62161;54.688;25.256;2022-10-16T13:40:35;12.82;;;7.70;;
64982;SDS011;62161;54.688;25.256;2022-10-16T13:43:00;15.45;;;8.77;;
64982;SDS011;62161;54.688;25.256;2022-10-16T13:45:26;20.10;;;8.90;;
64982;SDS011;62161;54.688;25.256;2022-10-16T13:48:02;16.90;;;8.95;;
64982;SDS011;62161;54.688;25.256;2022-10-16T13:50:29;19.27;;;8.48;;
64982;SDS011;62161;54.688;25.256;2022-10-16T13:53:06;17.42;;;8.13;;
64982;SDS011;62161;54.688;25.256;2022-10-16T13:55:37;18.05;;;8.40;;
64982;SDS011;62161;54.688;25.256;2022-10-16T13:58:13;19.15;;;8.48;;
64982;SDS011;62161;54.688;25.256;2022-10-16T14:00:39;13.65;;;8.07;;
64982;SDS011;62161;54.688;25.256;2022-10-16T14:03:17;15.63;;;8.15;;
64982;SDS011;62161;54.688;25.256;2022-10-16T14:05:49;21.48;;;8.15;;
64982;SDS011;62161;54.688;25.256;2022-10-16T14:08:17;15.63;;;8.18;;
64982;SDS011;62161;54.688;25.256;2022-10-16T14:10:42;17.17;;;8.88;;
64982;SDS011;62161;54.688;25.256;2022-10-16T14:13:14;18.92;;;8.73;;
64982;SDS011;62161;54.688;25.256;2022-10-16T14:15:46;17.33;;;8.60;;
64982;SDS011;62161;54.688;25.256;2022-10-16T14:18:18;16.75;;;8.65;;
64982;SDS011;62161;54.688;25.256;2022-10-16T14:20:46;18.13;;;8.40;;
64982;SDS011;62161;54.688;25.256;2022-10-16T14:23:23;14.93;;;8.48;;
64982;SDS011;62161;54.688;25.256;2022-10-16T14:26:05;17.10;;;8.30;;
64982;SDS011;62161;54.688;25.256;2022-10-16T14:28:33;15.52;;;8.25;;
64982;SDS011;62161;54.688;25.256;2022-10-16T14:30:59;13.50;;;7.63;;
64982;SDS011;62161;54.688;25.256;2022-10-16T14:35:59;16.88;;;8.00;;
64982;SDS011;62161;54.688;25.256;2022-10-16T14:38:25;15.80;;;8.30;;
64982;SDS011;62161;54.688;25.256;2022-10-16T14:40:50;16.27;;;8.30;;
64982;SDS011;62161;54.688;25.256;2022-10-16T14:43:24;15.27;;;8.02;;
64982;SDS011;62161;54.688;25.256;2022-10-16T14:45:56;12.73;;;7.93;;
64982;SDS011;62161;54.688;25.256;2022-10-16T14:48:22;16.17;;;8.48;;
64982;SDS011;62161;54.688;25.256;2022-10-16T14:50:48;17.65;;;8.38;;
64982;SDS011;62161;54.688;25.256;2022-10-16T14:53:14;13.73;;;8.00;;
64982;SDS011;62161;54.688;25.256;2022-10-16T14:55:40;18.25;;;8.90;;
64982;SDS011;62161;54.688;25.256;2022-10-16T14:58:16;18.30;;;8.68;;
64982;SDS011;62161;54.688;25.256;2022-10-16T15:00:44;17.35;;;8.32;;
64982;SDS011;62161;54.688;25.256;2022-10-16T15:03:10;16.23;;;7.93;;
64982;SDS011;62161;54.688;25.256;2022-10-16T15:05:35;15.77;;;8.80;;
64982;SDS011;62161;54.688;25.256;2022-10-16T15:08:01;14.88;;;8.50;;
64982;SDS011;62161;54.688;25.256;2022-10-16T15:10:27;12.88;;;8.07;;
64982;SDS011;62161;54.688;25.256;2022-10-16T15:12:54;14.23;;;8.00;;
64982;SDS011;62161;54.688;25.256;2022-10-16T15:17:51;14.43;;;8.55;;
64982;SDS011;62161;54.688;25.256;2022-10-16T15:20:20;13.45;;;8.02;;
64982;SDS011;62161;54.688;25.256;2022-10-16T15:22:46;14.63;;;7.95;;
64982;SDS011;62161;54.688;25.256;2022-10-16T15:25:17;18.48;;;8.02;;
64982;SDS011;62161;54.688;25.256;2022-10-16T15:28:02;14.73;;;8.05;;
64982;SDS011;62161;54.688;25.256;2022-10-16T15:30:29;14.27;;;8.30;;
64982;SDS011;62161;54.688;25.256;2022-10-16T15:32:55;13.20;;;8.25;;
64982;SDS011;62161;54.688;25.256;2022-10-16T15:35:20;14.43;;;8.45;;
64982;SDS011;62161;54.688;25.256;2022-10-16T15:37:46;12.43;;;8.43;;
64982;SDS011;62161;54.688;25.256;2022-10-16T15:40:12;15.75;;;8.50;;
64982;SDS011;62161;54.688;25.256;2022-10-16T15:42:37;15.85;;;8.30;;
64982;SDS011;62161;54.688;25.256;2022-10-16T15:45:03;13.90;;;8.15;;
64982;SDS011;62161;54.688;25.256;2022-10-16T15:47:29;17.15;;;8.88;;
64982;SDS011;62161;54.688;25.256;2022-10-16T15:49:54;15.45;;;8.60;;
64982;SDS011;62161;54.688;25.256;2022-10-16T15:52:20;14.30;;;8.18;;
64982;SDS011;62161;54.688;25.256;2022-10-16T15:54:45;14.13;;;7.75;;
64982;SDS011;62161;54.688;25.256;2022-10-16T15:57:10;13.90;;;8.38;;
64982;SDS011;62161;54.688;25.256;2022-10-16T15:59:36;18.60;;;8.60;;
64982;SDS011;62161;54.688;25.256;2022-10-16T16:02:01;13.43;;;8.43;;
64982;SDS011;62161;54.688;25.256;2022-10-16T16:04:29;13.65;;;8.45;;
64982;SDS011;62161;54.688;25.256;2022-10-16T16:06:55;14.48;;;8.10;;
64982;SDS011;62161;54.688;25.256;2022-10-16T16:09:20;12.07;;;7.47;;
64982;SDS011;62161;54.688;25.256;2022-10-16T16:11:45;20.73;;;8.27;;
64982;SDS011;62161;54.688;25.256;2022-10-16T16:14:12;14.00;;;8.90;;
64982;SDS011;62161;54.688;25.256;2022-10-16T16:16:38;17.23;;;8.82;;
64982;SDS011;62161;54.688;25.256;2022-10-16T16:19:06;17.75;;;8.27;;
64982;SDS011;62161;54.688;25.256;2022-10-16T16:21:33;14.15;;;8.55;;
64982;SDS011;62161;54.688;25.256;2022-10-16T16:23:58;15.57;;;8.68;;
64982;SDS011;62161;54.688;25.256;2022-10-16T16:28:51;12.13;;;7.70;;
64982;SDS011;62161;54.688;25.256;2022-10-16T16:31:17;20.02;;;8.40;;
64982;SDS011;62161;54.688;25.256;2022-10-16T16:33:42;15.63;;;8.30;;
64982;SDS011;62161;54.688;25.256;2022-10-16T16:36:08;17.10;;;8.68;;
64982;SDS011;62161;54.688;25.256;2022-10-16T16:38:34;12.70;;;7.80;;
64982;SDS011;62161;54.688;25.256;2022-10-16T16:41:10;14.93;;;8.30;;
64982;SDS011;62161;54.688;25.256;2022-10-16T16:43:39;15.02;;;8.60;;
64982;SDS011;62161;54.688;25.256;2022-10-16T16:46:05;13.98;;;8.48;;